Time;durP1;ratioP1;P1;durP2;ratioP2;P2;SDS_P1;SDS_P2;PMS_P1;PMS_P2;Temp;Humidity;BMP_temperature;BMP_pressure;BME280_temperature;BME280_humidity;BME280_pressure;Samples;Min_cycle;Max_cycle;Signal;HPM_P1;HPM_P2
2022/12/10 00:00:27;;;;;;;35.55;17.40;;;;;;;;;;5093196;28;20020;-76
2022/12/10 00:03:13;;;;;;;45.95;18.98;;;;;;;;;;5092986;28;20020;-76
2022/12/10 00:06:02;;;;;;;39.90;19.70;;;;;;;;;;5092773;28;20020;-77
2022/12/10 00:08:48;;;;;;;37.78;18.85;;;;;;;;;;5094192;28;20016;-76
2022/12/10 00:11:34;;;;;;;35.72;17.70;;;;;;;;;;5092632;28;20039;-76
2022/12/10 00:14:19;;;;;;;31.63;16.63;;;;;;;;;;5094319;28;20372;-76
2022/12/10 00:17:05;;;;;;;34.47;16.83;;;;;;;;;;5084322;28;20024;-76
2022/12/10 00:19:50;;;;;;;31.23;17.17;;;;;;;;;;5079588;28;20016;-74
2022/12/10 00:22:36;;;;;;;33.10;15.77;;;;;;;;;;5092145;28;20107;-74
2022/12/10 00:25:21;;;;;;;45.22;19.98;;;;;;;;;;5093733;28;20024;-75
2022/12/10 00:28:07;;;;;;;33.75;17.95;;;;;;;;;;5093146;28;20353;-75
2022/12/10 00:30:53;;;;;;;37.22;18.58;;;;;;;;;;5093124;28;20105;-74
2022/12/10 00:33:38;;;;;;;37.83;19.20;;;;;;;;;;5093779;28;20022;-74
2022/12/10 00:36:26;;;;;;;32.30;18.05;;;;;;;;;;5093070;28;20039;-75
2022/12/10 00:39:13;;;;;;;35.35;18.02;;;;;;;;;;5079524;28;20054;-74
2022/12/10 00:41:58;;;;;;;37.22;17.58;;;;;;;;;;5092716;28;20024;-73
2022/12/10 00:44:44;;;;;;;32.90;17.25;;;;;;;;;;5093190;28;20428;-75
2022/12/10 00:47:30;;;;;;;33.55;17.83;;;;;;;;;;5092752;28;20024;-75
2022/12/10 00:50:15;;;;;;;37.33;17.83;;;;;;;;;;5092782;28;20024;-75
2022/12/10 00:53:01;;;;;;;33.50;14.35;;;;;;;;;;5093427;28;20028;-75
2022/12/10 00:55:46;;;;;;;32.13;15.32;;;;;;;;;;5092955;28;20401;-73
2022/12/10 00:58:33;;;;;;;28.88;15.52;;;;;;;;;;5084520;28;20024;-75
2022/12/10 01:01:23;;;;;;;26.55;14.82;;;;;;;;;;5105177;28;20470;-76
2022/12/10 01:04:11;;;;;;;28.85;15.63;;;;;;;;;;5100073;28;20024;-75
2022/12/10 01:06:56;;;;;;;54.13;16.27;;;;;;;;;;5082947;28;20024;-75
2022/12/10 01:09:42;;;;;;;31.67;16.70;;;;;;;;;;5095752;28;20101;-76
2022/12/10 01:12:27;;;;;;;31.60;15.98;;;;;;;;;;5094847;28;20031;-74
2022/12/10 01:15:13;;;;;;;39.25;16.80;;;;;;;;;;5092392;28;20024;-74
2022/12/10 01:17:59;;;;;;;31.88;16.13;;;;;;;;;;5093117;28;20082;-74
2022/12/10 01:20:44;;;;;;;46.60;17.08;;;;;;;;;;5079342;28;20174;-75
2022/12/10 01:23:34;;;;;;;33.20;16.80;;;;;;;;;;5100522;28;20012;-72
2022/12/10 01:26:20;;;;;;;31.67;17.20;;;;;;;;;;5082597;28;20090;-74
2022/12/10 01:29:06;;;;;;;30.88;15.75;;;;;;;;;;5099162;28;20039;-74
2022/12/10 01:31:52;;;;;;;31.23;16.35;;;;;;;;;;5096225;28;20046;-74
2022/12/10 01:34:38;;;;;;;31.13;16.83;;;;;;;;;;5083927;28;20016;-75
2022/12/10 01:37:24;;;;;;;31.70;17.40;;;;;;;;;;5096338;28;20506;-74
2022/12/10 01:40:09;;;;;;;31.35;16.38;;;;;;;;;;5082842;28;20052;-74
2022/12/10 01:42:55;;;;;;;33.60;17.15;;;;;;;;;;5095141;28;20016;-74
2022/12/10 01:45:41;;;;;;;36.38;16.75;;;;;;;;;;5096702;28;20413;-75
2022/12/10 01:48:26;;;;;;;66.85;19.70;;;;;;;;;;5095377;28;20468;-75
2022/12/10 01:51:12;;;;;;;30.92;16.13;;;;;;;;;;5081895;28;20119;-74
2022/12/10 01:53:58;;;;;;;30.90;15.48;;;;;;;;;;5082498;28;20075;-75
2022/12/10 01:56:45;;;;;;;31.02;15.55;;;;;;;;;;5081104;28;20022;-75
2022/12/10 01:59:32;;;;;;;27.35;15.88;;;;;;;;;;5095258;28;20023;-76
2022/12/10 02:02:17;;;;;;;28.55;16.65;;;;;;;;;;5095207;28;20052;-75
2022/12/10 02:05:14;;;;;;;40.10;18.20;;;;;;;;;;5094503;28;20369;-74
2022/12/10 02:08:24;;;;;;;30.95;16.60;;;;;;;;;;5095864;28;20111;-74
2022/12/10 02:11:33;;;;;;;29.33;16.98;;;;;;;;;;5094881;28;20028;-74
2022/12/10 02:14:27;;;;;;;29.13;16.05;;;;;;;;;;5095528;28;20045;-75
2022/12/10 02:17:15;;;;;;;35.08;16.88;;;;;;;;;;5094942;28;20284;-76
2022/12/10 02:20:12;;;;;;;42.17;17.55;;;;;;;;;;5095752;28;20023;-74
2022/12/10 02:23:01;;;;;;;37.42;17.45;;;;;;;;;;5094766;28;20028;-74
2022/12/10 02:25:54;;;;;;;36.28;15.93;;;;;;;;;;5095381;28;20024;-75
2022/12/10 02:28:46;;;;;;;42.58;17.42;;;;;;;;;;5094099;28;20028;-74
2022/12/10 02:31:32;;;;;;;34.08;15.73;;;;;;;;;;5080776;28;20399;-76
2022/12/10 02:34:18;;;;;;;33.42;17.30;;;;;;;;;;5096268;28;20103;-75
2022/12/10 02:37:07;;;;;;;47.03;19.90;;;;;;;;;;5086883;28;20028;-75
2022/12/10 02:39:54;;;;;;;38.75;19.10;;;;;;;;;;5094966;28;20072;-75
2022/12/10 02:42:42;;;;;;;33.72;17.50;;;;;;;;;;5081002;28;20051;-75
2022/12/10 02:45:29;;;;;;;30.33;18.33;;;;;;;;;;5094341;28;20070;-74
2022/12/10 02:48:14;;;;;;;55.28;21.10;;;;;;;;;;5095428;28;20031;-76
2022/12/10 02:51:00;;;;;;;35.45;19.67;;;;;;;;;;5094582;28;20119;-74
2022/12/10 02:53:46;;;;;;;30.45;17.90;;;;;;;;;;5080875;28;20012;-76
2022/12/10 02:56:52;;;;;;;44.60;17.50;;;;;;;;;;5095150;28;20102;-75
2022/12/10 02:59:42;;;;;;;37.63;16.92;;;;;;;;;;5095443;28;20028;-75
2022/12/10 03:02:36;;;;;;;22.27;13.85;;;;;;;;;;5095175;28;20086;-75
2022/12/10 03:05:28;;;;;;;24.42;13.38;;;;;;;;;;5095327;28;20035;-76
2022/12/10 03:08:17;;;;;;;20.92;13.23;;;;;;;;;;5094808;28;20403;-75
2022/12/10 03:11:11;;;;;;;18.73;12.23;;;;;;;;;;5094295;28;20130;-75
2022/12/10 03:14:18;;;;;;;30.85;13.85;;;;;;;;;;5094230;28;20400;-75
2022/12/10 03:17:05;;;;;;;19.23;12.88;;;;;;;;;;5094000;28;20016;-75
2022/12/10 03:19:51;;;;;;;19.00;12.82;;;;;;;;;;5095493;28;20012;-76
2022/12/10 03:22:38;;;;;;;18.70;12.77;;;;;;;;;;5094786;28;20024;-74
2022/12/10 03:25:26;;;;;;;19.13;13.00;;;;;;;;;;5094234;28;20020;-75
2022/12/10 03:28:12;;;;;;;18.30;12.65;;;;;;;;;;5079972;28;20106;-75
2022/12/10 03:30:58;;;;;;;21.15;13.32;;;;;;;;;;5080366;28;20024;-74
2022/12/10 03:33:45;;;;;;;22.52;12.75;;;;;;;;;;5079441;28;20020;-75
2022/12/10 03:36:31;;;;;;;19.58;12.88;;;;;;;;;;5094213;28;20077;-76
2022/12/10 03:39:17;;;;;;;18.95;12.50;;;;;;;;;;5094242;28;20016;-74
2022/12/10 03:42:04;;;;;;;18.92;11.93;;;;;;;;;;5093546;28;20093;-75
2022/12/10 03:44:50;;;;;;;19.15;12.80;;;;;;;;;;5080258;28;20039;-74
2022/12/10 03:47:36;;;;;;;18.33;11.95;;;;;;;;;;5093167;28;20084;-75
2022/12/10 03:50:21;;;;;;;18.27;12.30;;;;;;;;;;5093962;28;20110;-75
2022/12/10 03:53:07;;;;;;;19.83;12.73;;;;;;;;;;5093534;28;20039;-75
2022/12/10 03:55:52;;;;;;;21.73;12.98;;;;;;;;;;5092429;28;20074;-75
2022/12/10 03:58:38;;;;;;;20.48;13.68;;;;;;;;;;5093752;28;20020;-75
2022/12/10 04:01:23;;;;;;;24.08;14.70;;;;;;;;;;5094148;28;20358;-75
2022/12/10 04:04:12;;;;;;;27.70;14.65;;;;;;;;;;5093061;28;20505;-76
2022/12/10 04:06:58;;;;;;;23.17;13.55;;;;;;;;;;5079944;28;20019;-75
2022/12/10 04:09:43;;;;;;;22.08;13.55;;;;;;;;;;5092523;28;20115;-75
2022/12/10 04:12:29;;;;;;;25.27;14.48;;;;;;;;;;5078631;28;20086;-75
2022/12/10 04:18:36;;;;;;;20.33;13.32;;;;;;;;;;5012856;28;20064;-75
2022/12/10 04:27:33;;;;;;;26.15;12.80;;;;;;;;;;5092748;28;20457;-74
2022/12/10 04:30:18;;;;;;;17.83;12.40;;;;;;;;;;5093221;28;20035;-76
2022/12/10 04:33:04;;;;;;;19.98;12.23;;;;;;;;;;5092840;28;20388;-75
2022/12/10 04:35:49;;;;;;;17.42;11.48;;;;;;;;;;5092994;28;20016;-75
2022/12/10 04:38:35;;;;;;;17.73;11.93;;;;;;;;;;5078603;28;20027;-75
2022/12/10 04:41:21;;;;;;;16.00;10.93;;;;;;;;;;5092580;28;20024;-74
2022/12/10 04:44:07;;;;;;;17.02;11.32;;;;;;;;;;5092210;28;20024;-75
2022/12/10 04:46:53;;;;;;;18.90;11.32;;;;;;;;;;5093869;28;20365;-74
2022/12/10 04:49:39;;;;;;;17.42;11.07;;;;;;;;;;5092634;28;20020;-75
2022/12/10 04:52:25;;;;;;;18.08;11.73;;;;;;;;;;5092243;28;20081;-75
2022/12/10 04:55:10;;;;;;;19.45;12.18;;;;;;;;;;5092640;28;20048;-75
2022/12/10 04:57:57;;;;;;;18.45;11.52;;;;;;;;;;5092455;28;20357;-74
2022/12/10 05:00:42;;;;;;;18.42;11.55;;;;;;;;;;5092585;28;20044;-75
2022/12/10 05:03:28;;;;;;;21.52;13.30;;;;;;;;;;5092974;28;20024;-75
2022/12/10 05:06:15;;;;;;;18.63;12.32;;;;;;;;;;5078517;28;20016;-75
2022/12/10 05:09:00;;;;;;;26.05;16.65;;;;;;;;;;5082252;28;20028;-74
2022/12/10 05:11:49;;;;;;;39.60;23.92;;;;;;;;;;5096181;28;20020;-75
2022/12/10 05:14:34;;;;;;;37.95;22.33;;;;;;;;;;5099572;28;20413;-74
2022/12/10 05:17:20;;;;;;;31.40;18.85;;;;;;;;;;5096459;28;20438;-75
2022/12/10 05:20:06;;;;;;;25.60;16.33;;;;;;;;;;5096111;28;20459;-76
2022/12/10 05:26:03;;;;;;;29.92;17.23;;;;;;;;;;5097342;28;20107;-74
2022/12/10 05:28:48;;;;;;;27.15;17.15;;;;;;;;;;5097174;28;20412;-75
2022/12/10 05:31:34;;;;;;;27.02;16.83;;;;;;;;;;5097301;28;20016;-75
2022/12/10 05:34:20;;;;;;;27.90;17.15;;;;;;;;;;5096680;28;20020;-74
2022/12/10 05:37:05;;;;;;;26.38;17.02;;;;;;;;;;5097063;28;20445;-74
2022/12/10 05:39:51;;;;;;;27.30;15.75;;;;;;;;;;5096141;28;20034;-73
2022/12/10 05:42:37;;;;;;;27.08;16.67;;;;;;;;;;5096763;28;20039;-74
2022/12/10 05:45:22;;;;;;;25.17;15.98;;;;;;;;;;5081345;28;20055;-75
2022/12/10 05:48:09;;;;;;;26.00;16.33;;;;;;;;;;5095964;28;20020;-75
2022/12/10 05:50:55;;;;;;;28.50;17.85;;;;;;;;;;5096143;28;20139;-75
2022/12/10 05:53:40;;;;;;;29.88;18.88;;;;;;;;;;5096133;28;20078;-75
2022/12/10 05:56:26;;;;;;;30.88;19.13;;;;;;;;;;5097480;28;20009;-74
2022/12/10 05:59:11;;;;;;;36.63;21.42;;;;;;;;;;5096112;28;20465;-75
2022/12/10 06:01:57;;;;;;;37.13;21.60;;;;;;;;;;5097134;28;20090;-73
2022/12/10 06:04:43;;;;;;;35.15;20.02;;;;;;;;;;5109636;28;20034;-72
2022/12/10 06:07:29;;;;;;;39.55;21.08;;;;;;;;;;5109068;28;20514;-76
2022/12/10 06:10:15;;;;;;;39.10;20.83;;;;;;;;;;5099799;28;20012;-75
2022/12/10 06:13:01;;;;;;;36.85;20.98;;;;;;;;;;5105591;28;20020;-74
2022/12/10 06:15:46;;;;;;;33.75;19.80;;;;;;;;;;5112759;28;20020;-76
2022/12/10 06:18:32;;;;;;;33.42;20.42;;;;;;;;;;5108812;28;20040;-74
2022/12/10 06:21:18;;;;;;;26.83;15.90;;;;;;;;;;5103880;28;20380;-75
2022/12/10 06:24:04;;;;;;;26.85;15.57;;;;;;;;;;5097789;28;20047;-75
2022/12/10 06:26:50;;;;;;;24.60;14.68;;;;;;;;;;5096829;28;20385;-75
2022/12/10 06:29:36;;;;;;;21.20;13.90;;;;;;;;;;5116205;28;20035;-75
2022/12/10 06:32:22;;;;;;;20.45;13.10;;;;;;;;;;5102265;28;20099;-73
2022/12/10 06:35:07;;;;;;;23.00;14.73;;;;;;;;;;5089514;28;20020;-74
2022/12/10 06:37:53;;;;;;;22.17;14.80;;;;;;;;;;5096556;28;20384;-74
2022/12/10 06:40:39;;;;;;;29.80;19.05;;;;;;;;;;5095494;28;20020;-74
2022/12/10 06:43:28;;;;;;;24.92;16.08;;;;;;;;;;5095720;28;20461;-74
2022/12/10 06:46:14;;;;;;;27.52;17.38;;;;;;;;;;5081557;28;20161;-75
2022/12/10 06:49:00;;;;;;;27.33;18.38;;;;;;;;;;5094393;28;20012;-75
2022/12/10 06:51:47;;;;;;;31.38;19.33;;;;;;;;;;5081801;28;20089;-74
2022/12/10 06:54:32;;;;;;;31.80;21.15;;;;;;;;;;5095900;28;20019;-75
2022/12/10 06:57:18;;;;;;;32.80;20.55;;;;;;;;;;5096443;28;20434;-74
2022/12/10 07:00:04;;;;;;;34.00;22.33;;;;;;;;;;5095264;28;20077;-74
2022/12/10 07:02:50;;;;;;;32.00;21.08;;;;;;;;;;5080610;28;20350;-74
2022/12/10 07:05:35;;;;;;;30.27;20.17;;;;;;;;;;5081063;28;20348;-75
2022/12/10 07:08:23;;;;;;;30.73;19.70;;;;;;;;;;5098673;28;20158;-73
2022/12/10 07:11:10;;;;;;;31.08;19.42;;;;;;;;;;5104611;28;20097;-76
2022/12/10 07:13:56;;;;;;;27.02;17.25;;;;;;;;;;5109183;28;20031;-75
2022/12/10 07:16:42;;;;;;;27.38;18.60;;;;;;;;;;5100535;28;20099;-75
2022/12/10 07:19:28;;;;;;;27.23;17.55;;;;;;;;;;5095516;28;20098;-75
2022/12/10 07:22:13;;;;;;;26.00;17.23;;;;;;;;;;5080049;28;20082;-75
2022/12/10 07:24:59;;;;;;;27.70;17.67;;;;;;;;;;5093506;28;20398;-75
2022/12/10 07:27:44;;;;;;;25.85;18.02;;;;;;;;;;5094810;28;20039;-74
2022/12/10 07:30:30;;;;;;;34.28;19.98;;;;;;;;;;5094744;28;20024;-75
2022/12/10 07:33:16;;;;;;;30.83;18.80;;;;;;;;;;5095805;28;20457;-76
2022/12/10 07:36:05;;;;;;;29.98;18.08;;;;;;;;;;5094323;28;20073;-73
2022/12/10 07:38:52;;;;;;;32.10;18.65;;;;;;;;;;5094093;28;20020;-72
2022/12/10 07:41:37;;;;;;;32.42;22.23;;;;;;;;;;5093574;28;20050;-74
2022/12/10 07:44:24;;;;;;;32.80;22.05;;;;;;;;;;5079941;28;20023;-73
2022/12/10 07:47:10;;;;;;;33.08;21.20;;;;;;;;;;5094093;28;20031;-73
2022/12/10 07:49:56;;;;;;;29.55;19.02;;;;;;;;;;5094381;28;20154;-74
2022/12/10 07:52:41;;;;;;;25.77;15.90;;;;;;;;;;5079742;28;20020;-74
2022/12/10 07:55:27;;;;;;;20.75;13.82;;;;;;;;;;5093343;28;20323;-74
2022/12/10 07:58:12;;;;;;;18.10;12.48;;;;;;;;;;5079925;28;20295;-74
2022/12/10 08:00:58;;;;;;;19.35;12.35;;;;;;;;;;5091319;28;20044;-74
2022/12/10 08:03:45;;;;;;;20.70;13.27;;;;;;;;;;5093951;28;20513;-75
2022/12/10 08:06:30;;;;;;;20.75;14.32;;;;;;;;;;5094846;28;20357;-75
2022/12/10 08:09:16;;;;;;;22.50;14.00;;;;;;;;;;5094173;28;20031;-75
2022/12/10 08:12:02;;;;;;;22.58;13.05;;;;;;;;;;5094142;28;20028;-76
2022/12/10 08:14:47;;;;;;;23.60;13.68;;;;;;;;;;5094206;28;20024;-76
2022/12/10 08:17:34;;;;;;;20.92;13.68;;;;;;;;;;5093603;28;20012;-75
2022/12/10 08:20:20;;;;;;;21.17;13.73;;;;;;;;;;5093536;28;20421;-76
2022/12/10 08:23:06;;;;;;;17.98;13.82;;;;;;;;;;5093912;28;20023;-75
2022/12/10 08:25:51;;;;;;;22.60;14.75;;;;;;;;;;5094350;28;20099;-77
2022/12/10 08:28:37;;;;;;;21.10;15.10;;;;;;;;;;5079498;28;20012;-77
2022/12/10 08:31:24;;;;;;;24.85;15.25;;;;;;;;;;5078109;28;20331;-75
2022/12/10 08:34:13;;;;;;;26.60;15.77;;;;;;;;;;5080075;28;20496;-77
2022/12/10 08:36:59;;;;;;;24.70;14.95;;;;;;;;;;5080061;28;20116;-76
2022/12/10 08:39:44;;;;;;;21.52;14.68;;;;;;;;;;5093590;28;20369;-76
2022/12/10 08:42:30;;;;;;;30.13;17.13;;;;;;;;;;5093008;28;20530;-77
2022/12/10 08:45:16;;;;;;;27.42;16.52;;;;;;;;;;5079004;28;20031;-77
2022/12/10 08:48:02;;;;;;;27.30;15.88;;;;;;;;;;5079141;28;20037;-76
2022/12/10 08:50:47;;;;;;;26.25;16.73;;;;;;;;;;5094064;28;20035;-75
2022/12/10 08:53:33;;;;;;;25.10;16.98;;;;;;;;;;5093056;28;20035;-74
2022/12/10 08:56:19;;;;;;;23.52;15.32;;;;;;;;;;5078263;28;20024;-76
2022/12/10 08:59:05;;;;;;;20.10;12.77;;;;;;;;;;5079018;28;20028;-76
2022/12/10 09:01:53;;;;;;;17.10;11.60;;;;;;;;;;5093484;28;20036;-75
2022/12/10 09:04:42;;;;;;;22.40;13.40;;;;;;;;;;5080245;28;20163;-76
2022/12/10 09:07:29;;;;;;;22.33;13.90;;;;;;;;;;5079173;28;20040;-74
2022/12/10 09:10:14;;;;;;;20.95;13.68;;;;;;;;;;5093341;28;20080;-75
2022/12/10 09:13:00;;;;;;;17.23;11.88;;;;;;;;;;5092730;28;20078;-75
2022/12/10 09:15:49;;;;;;;23.42;11.98;;;;;;;;;;5092114;28;20046;-75
2022/12/10 09:18:35;;;;;;;18.73;13.20;;;;;;;;;;5093424;28;20318;-75
2022/12/10 09:21:21;;;;;;;20.25;12.48;;;;;;;;;;5092220;28;20437;-74
2022/12/10 09:24:06;;;;;;;18.48;11.70;;;;;;;;;;5093345;28;20039;-76
2022/12/10 09:26:52;;;;;;;12.95;10.02;;;;;;;;;;5092467;28;20039;-75
2022/12/10 09:29:38;;;;;;;15.98;11.20;;;;;;;;;;5079228;28;20066;-75
2022/12/10 09:32:23;;;;;;;15.85;11.27;;;;;;;;;;5093586;28;20111;-75
2022/12/10 09:35:10;;;;;;;18.23;11.82;;;;;;;;;;5079199;28;20031;-76
2022/12/10 09:37:56;;;;;;;18.73;13.13;;;;;;;;;;5092515;28;20031;-75
2022/12/10 09:40:45;;;;;;;22.92;14.85;;;;;;;;;;5078190;28;20376;-75
2022/12/10 09:43:37;;;;;;;20.35;13.73;;;;;;;;;;5093158;28;20016;-77
2022/12/10 09:46:22;;;;;;;24.42;15.48;;;;;;;;;;5092613;28;20028;-76
2022/12/10 09:49:19;;;;;;;23.15;16.90;;;;;;;;;;5092380;28;20051;-75
2022/12/10 09:52:09;;;;;;;22.23;16.10;;;;;;;;;;5092487;28;20503;-76
2022/12/10 09:54:57;;;;;;;21.63;15.52;;;;;;;;;;5094097;28;20035;-76
2022/12/10 09:57:45;;;;;;;24.60;16.08;;;;;;;;;;5097945;28;20053;-75
2022/12/10 10:00:30;;;;;;;26.73;16.58;;;;;;;;;;5080967;28;20016;-75
2022/12/10 10:03:19;;;;;;;22.73;16.60;;;;;;;;;;5097624;28;20395;-75
2022/12/10 10:06:04;;;;;;;22.38;13.93;;;;;;;;;;5096945;28;20028;-75
2022/12/10 10:08:54;;;;;;;25.67;15.38;;;;;;;;;;5096814;28;20016;-75
2022/12/10 10:11:40;;;;;;;23.00;15.18;;;;;;;;;;5096714;28;20377;-75
2022/12/10 10:14:29;;;;;;;21.88;15.25;;;;;;;;;;5082586;28;20022;-75
2022/12/10 10:17:31;;;;;;;22.83;15.68;;;;;;;;;;5096972;28;20020;-76
2022/12/10 10:20:17;;;;;;;25.00;16.00;;;;;;;;;;5096209;28;20381;-74
2022/12/10 10:23:02;;;;;;;26.48;16.23;;;;;;;;;;5095357;28;20028;-77
2022/12/10 10:25:48;;;;;;;22.85;14.98;;;;;;;;;;5096265;28;20379;-75
2022/12/10 10:28:34;;;;;;;22.00;14.98;;;;;;;;;;5095863;28;20012;-75
2022/12/10 10:31:21;;;;;;;25.10;14.88;;;;;;;;;;5095626;28;20106;-75
2022/12/10 10:34:21;;;;;;;25.70;16.70;;;;;;;;;;5081485;28;20106;-76
2022/12/10 10:37:13;;;;;;;21.70;14.48;;;;;;;;;;5097201;28;20032;-74
2022/12/10 10:39:58;;;;;;;22.77;14.60;;;;;;;;;;5112529;28;20088;-74
2022/12/10 10:42:45;;;;;;;25.90;15.65;;;;;;;;;;5100207;28;20104;-75
2022/12/10 10:45:35;;;;;;;19.17;13.98;;;;;;;;;;5096759;28;20024;-75
2022/12/10 10:48:22;;;;;;;20.85;14.15;;;;;;;;;;5095121;28;20024;-75
2022/12/10 10:51:16;;;;;;;23.27;15.07;;;;;;;;;;5095592;28;20043;-76
2022/12/10 10:54:01;;;;;;;25.13;14.27;;;;;;;;;;5095778;28;20028;-75
2022/12/10 10:56:47;;;;;;;31.20;18.80;;;;;;;;;;5094983;28;20020;-75
2022/12/10 10:59:34;;;;;;;30.35;16.52;;;;;;;;;;5096260;28;20043;-76
2022/12/10 11:02:23;;;;;;;28.60;18.10;;;;;;;;;;5085923;28;20047;-75
2022/12/10 11:05:22;;;;;;;28.73;17.77;;;;;;;;;;5082694;28;20031;-75
2022/12/10 11:08:15;;;;;;;33.78;22.05;;;;;;;;;;5095410;28;20020;-75
2022/12/10 11:11:03;;;;;;;26.75;17.15;;;;;;;;;;5094874;28;20050;-76
2022/12/10 11:13:48;;;;;;;38.58;21.17;;;;;;;;;;5095141;28;20020;-76
2022/12/10 11:16:34;;;;;;;34.92;21.08;;;;;;;;;;5094566;28;20081;-76
2022/12/10 11:19:21;;;;;;;35.83;21.42;;;;;;;;;;5080887;28;20364;-76
2022/12/10 11:22:17;;;;;;;35.20;21.38;;;;;;;;;;5098107;28;20020;-75
2022/12/10 11:25:03;;;;;;;39.65;22.05;;;;;;;;;;5089069;28;20031;-75
2022/12/10 11:27:48;;;;;;;44.08;23.63;;;;;;;;;;5111104;28;20031;-75
2022/12/10 11:30:39;;;;;;;39.17;23.52;;;;;;;;;;5102216;28;20036;-76
2022/12/10 11:33:31;;;;;;;36.22;19.98;;;;;;;;;;5095631;28;20050;-75
2022/12/10 11:36:26;;;;;;;30.02;18.10;;;;;;;;;;5104621;28;20031;-74
2022/12/10 11:39:25;;;;;;;30.50;18.08;;;;;;;;;;5102822;28;20020;-75
2022/12/10 11:42:13;;;;;;;31.02;16.55;;;;;;;;;;5095716;28;20024;-75
2022/12/10 11:45:15;;;;;;;27.33;18.48;;;;;;;;;;5093865;28;20097;-74
2022/12/10 11:48:04;;;;;;;31.30;18.95;;;;;;;;;;5093320;28;20019;-75
2022/12/10 11:50:53;;;;;;;24.42;16.50;;;;;;;;;;5094901;28;20446;-75
2022/12/10 11:53:44;;;;;;;24.75;16.63;;;;;;;;;;5094583;28;20103;-75
2022/12/10 11:56:49;;;;;;;26.45;15.57;;;;;;;;;;5093382;28;20031;-75
2022/12/10 11:59:39;;;;;;;23.40;15.88;;;;;;;;;;5094654;28;20016;-76
2022/12/10 12:02:31;;;;;;;27.50;18.05;;;;;;;;;;5078880;28;20112;-76
2022/12/10 12:05:40;;;;;;;27.60;16.92;;;;;;;;;;5079636;28;20451;-75
2022/12/10 12:08:38;;;;;;;26.83;16.52;;;;;;;;;;5080718;28;20028;-75
2022/12/10 12:11:42;;;;;;;25.67;16.80;;;;;;;;;;5094372;28;20034;-75
2022/12/10 12:14:34;;;;;;;24.05;16.33;;;;;;;;;;5091681;28;20012;-75
2022/12/10 12:17:25;;;;;;;27.40;18.67;;;;;;;;;;5100944;28;20016;-75
2022/12/10 12:20:20;;;;;;;26.23;18.13;;;;;;;;;;5097710;28;20095;-76
2022/12/10 12:23:19;;;;;;;28.80;17.85;;;;;;;;;;5094155;28;20034;-74
2022/12/10 12:26:14;;;;;;;27.40;17.38;;;;;;;;;;5093901;28;20103;-76
2022/12/10 12:29:10;;;;;;;26.65;16.98;;;;;;;;;;5094095;28;20047;-75
2022/12/10 12:32:17;;;;;;;29.08;17.52;;;;;;;;;;5092648;28;20426;-76
2022/12/10 12:35:12;;;;;;;29.52;17.33;;;;;;;;;;5079754;28;20051;-76
2022/12/10 12:38:06;;;;;;;29.20;17.80;;;;;;;;;;5083056;28;20087;-75
2022/12/10 12:41:00;;;;;;;23.05;16.60;;;;;;;;;;5105156;28;20016;-75
2022/12/10 12:43:55;;;;;;;28.15;16.10;;;;;;;;;;5093193;28;20116;-76
2022/12/10 12:46:45;;;;;;;31.25;18.40;;;;;;;;;;5076906;28;20028;-76
2022/12/10 12:49:33;;;;;;;33.10;19.40;;;;;;;;;;5093303;28;20024;-75
2022/12/10 12:52:25;;;;;;;34.30;19.52;;;;;;;;;;5093029;28;20357;-77
2022/12/10 12:55:20;;;;;;;35.35;19.50;;;;;;;;;;5078642;28;20024;-76
2022/12/10 12:58:15;;;;;;;30.00;18.85;;;;;;;;;;5096603;28;20334;-75
2022/12/10 13:01:06;;;;;;;29.83;18.77;;;;;;;;;;5092968;28;20090;-75
2022/12/10 13:03:51;;;;;;;36.15;20.23;;;;;;;;;;5093124;28;20098;-75
2022/12/10 13:06:37;;;;;;;39.55;21.45;;;;;;;;;;5093430;28;20024;-75
2022/12/10 13:09:27;;;;;;;40.20;21.13;;;;;;;;;;5079346;28;20445;-75
2022/12/10 13:12:25;;;;;;;42.75;22.00;;;;;;;;;;5092898;28;20024;-74
2022/12/10 13:15:17;;;;;;;51.45;25.23;;;;;;;;;;5093031;28;20008;-75
2022/12/10 13:18:05;;;;;;;44.17;23.38;;;;;;;;;;5093249;28;20089;-75
2022/12/10 13:21:10;;;;;;;39.45;23.45;;;;;;;;;;5093357;28;20020;-76
2022/12/10 13:24:07;;;;;;;43.28;27.27;;;;;;;;;;5092687;28;20072;-75
2022/12/10 13:27:11;;;;;;;41.97;25.33;;;;;;;;;;5093054;28;20024;-75
2022/12/10 13:29:57;;;;;;;40.22;24.83;;;;;;;;;;5096499;28;20020;-74
2022/12/10 13:32:44;;;;;;;44.33;25.45;;;;;;;;;;5096737;28;20020;-75
2022/12/10 13:35:31;;;;;;;39.55;25.60;;;;;;;;;;5097563;28;20035;-74
2022/12/10 13:38:21;;;;;;;37.83;24.77;;;;;;;;;;5096672;28;20461;-74
2022/12/10 13:44:30;;;;;;;38.67;23.25;;;;;;;;;;5096402;28;20469;-73
2022/12/10 13:47:26;;;;;;;38.03;23.25;;;;;;;;;;5096855;28;20078;-74
2022/12/10 13:50:17;;;;;;;41.70;24.65;;;;;;;;;;5096760;28;20415;-74
2022/12/10 13:53:03;;;;;;;38.28;23.38;;;;;;;;;;5081898;28;20066;-75
2022/12/10 13:55:51;;;;;;;40.05;25.95;;;;;;;;;;5096232;28;20093;-74
2022/12/10 13:58:42;;;;;;;43.45;25.98;;;;;;;;;;5096628;28;20020;-75
2022/12/10 14:01:37;;;;;;;42.20;26.15;;;;;;;;;;5095802;28;20055;-75
2022/12/10 14:04:23;;;;;;;48.45;26.05;;;;;;;;;;5081409;28;20457;-76
2022/12/10 14:07:12;;;;;;;45.08;24.98;;;;;;;;;;5096165;28;20081;-76
2022/12/10 14:09:59;;;;;;;51.85;26.15;;;;;;;;;;5096382;28;20085;-75
2022/12/10 14:12:45;;;;;;;42.08;25.83;;;;;;;;;;5097055;28;20028;-74
2022/12/10 14:15:34;;;;;;;49.50;26.77;;;;;;;;;;5083120;28;20351;-75
2022/12/10 14:18:21;;;;;;;44.08;25.33;;;;;;;;;;5095688;28;20161;-74
2022/12/10 14:21:07;;;;;;;38.95;24.40;;;;;;;;;;5096307;28;20020;-74
2022/12/10 14:23:53;;;;;;;43.17;25.75;;;;;;;;;;5081261;28;20016;-75
2022/12/10 14:26:38;;;;;;;44.08;25.65;;;;;;;;;;5095682;28;20085;-74
2022/12/10 14:29:24;;;;;;;47.28;27.17;;;;;;;;;;5080845;28;20016;-74
2022/12/10 14:32:20;;;;;;;46.70;27.67;;;;;;;;;;5081174;28;20515;-74
2022/12/10 14:35:08;;;;;;;46.40;27.48;;;;;;;;;;5096534;28;20358;-74
2022/12/10 14:37:55;;;;;;;54.33;30.08;;;;;;;;;;5082197;28;20491;-74
2022/12/10 14:40:41;;;;;;;51.55;32.08;;;;;;;;;;5095083;28;20020;-74
2022/12/10 14:43:37;;;;;;;60.63;33.67;;;;;;;;;;5081327;28;20090;-73
2022/12/10 14:46:24;;;;;;;60.97;31.73;;;;;;;;;;5081772;28;20020;-74
2022/12/10 14:49:15;;;;;;;52.53;32.35;;;;;;;;;;5095205;28;20027;-74
2022/12/10 14:52:02;;;;;;;55.20;31.73;;;;;;;;;;5080627;28;20024;-74
2022/12/10 14:54:48;;;;;;;52.67;31.92;;;;;;;;;;5080705;28;20012;-74
2022/12/10 14:57:35;;;;;;;53.17;30.80;;;;;;;;;;5080497;28;20035;-74
2022/12/10 15:00:22;;;;;;;58.60;32.22;;;;;;;;;;5081543;28;20028;-74
2022/12/10 15:03:09;;;;;;;54.88;30.60;;;;;;;;;;5095643;28;20083;-74
2022/12/10 15:05:56;;;;;;;57.33;31.38;;;;;;;;;;5081690;28;20023;-74
2022/12/10 15:08:42;;;;;;;50.72;27.55;;;;;;;;;;5080711;28;20039;-74
2022/12/10 15:11:28;;;;;;;48.65;28.40;;;;;;;;;;5094629;28;20020;-74
2022/12/10 15:14:19;;;;;;;53.28;30.70;;;;;;;;;;5080681;28;20020;-73
2022/12/10 15:17:04;;;;;;;61.03;35.88;;;;;;;;;;5081609;28;20099;-74
2022/12/10 15:19:50;;;;;;;69.55;41.05;;;;;;;;;;5094652;28;20031;-74
2022/12/10 15:22:36;;;;;;;76.53;45.63;;;;;;;;;;5079494;28;20027;-74
2022/12/10 15:25:26;;;;;;;80.53;46.58;;;;;;;;;;5095053;28;20111;-73
2022/12/10 15:28:31;;;;;;;92.43;52.20;;;;;;;;;;5095221;28;20032;-75
2022/12/10 15:31:26;;;;;;;100.55;51.03;;;;;;;;;;5080614;28;20020;-74
2022/12/10 15:34:13;;;;;;;80.60;43.97;;;;;;;;;;5080303;28;20017;-75
2022/12/10 15:37:03;;;;;;;69.45;40.70;;;;;;;;;;5095556;28;20107;-74
2022/12/10 15:39:55;;;;;;;60.20;35.65;;;;;;;;;;5095179;28;20013;-73
2022/12/10 15:42:41;;;;;;;44.92;27.70;;;;;;;;;;5080917;28;20408;-73
2022/12/10 15:45:37;;;;;;;44.97;25.50;;;;;;;;;;5094502;28;20031;-73
2022/12/10 15:48:25;;;;;;;45.80;27.80;;;;;;;;;;5095212;28;20034;-73
2022/12/10 15:51:11;;;;;;;47.53;27.45;;;;;;;;;;5093973;28;20405;-73
2022/12/10 15:53:56;;;;;;;43.13;27.15;;;;;;;;;;5094822;28;20357;-73
2022/12/10 15:56:42;;;;;;;45.08;28.63;;;;;;;;;;5094290;28;20035;-74
2022/12/10 15:59:27;;;;;;;45.88;28.90;;;;;;;;;;5080006;28;20015;-74
2022/12/10 16:02:22;;;;;;;45.03;27.73;;;;;;;;;;5079550;28;20048;-72
2022/12/10 16:05:11;;;;;;;46.85;28.90;;;;;;;;;;5094264;28;20016;-75
2022/12/10 16:07:59;;;;;;;41.50;26.80;;;;;;;;;;5093272;28;20031;-75
2022/12/10 16:10:45;;;;;;;57.50;35.05;;;;;;;;;;5094541;28;20047;-75
2022/12/10 16:13:32;;;;;;;55.85;33.90;;;;;;;;;;5093896;28;20024;-75
2022/12/10 16:16:18;;;;;;;50.00;31.23;;;;;;;;;;5079545;28;20457;-75
2022/12/10 16:19:08;;;;;;;51.10;32.25;;;;;;;;;;5093995;28;20055;-74
2022/12/10 16:21:53;;;;;;;54.00;32.28;;;;;;;;;;5093505;28;20024;-74
2022/12/10 16:24:39;;;;;;;55.67;33.65;;;;;;;;;;5094122;28;20097;-76
2022/12/10 16:27:26;;;;;;;58.97;34.38;;;;;;;;;;5093395;28;20089;-73
2022/12/10 16:30:18;;;;;;;48.13;29.52;;;;;;;;;;5093446;28;20039;-73
2022/12/10 16:33:04;;;;;;;45.65;28.48;;;;;;;;;;5094043;28;20456;-74